createdAt,value
2018-07-12T00:00:05.760Z,14.80
2018-07-12T00:02:33.427Z,14.80
2018-07-12T00:05:00.859Z,14.80
2018-07-12T00:07:28.380Z,14.80
2018-07-12T00:09:55.867Z,14.70
2018-07-12T00:12:23.321Z,14.70
2018-07-12T00:14:50.891Z,14.70
2018-07-12T00:17:18.370Z,14.70
2018-07-12T00:19:45.808Z,14.70
2018-07-12T00:22:13.310Z,14.70
2018-07-12T00:24:40.818Z,14.60
2018-07-12T00:27:08.236Z,14.60
2018-07-12T00:29:35.886Z,14.60
2018-07-12T00:32:03.562Z,14.50
2018-07-12T00:34:31.299Z,14.50
2018-07-12T00:36:59.113Z,14.50
2018-07-12T00:39:26.691Z,14.50
2018-07-12T00:41:54.182Z,14.40
2018-07-12T00:44:21.612Z,14.40
2018-07-12T00:46:49.210Z,14.30
2018-07-12T00:49:16.666Z,14.30
2018-07-12T00:51:44.226Z,14.30
2018-07-12T00:54:11.800Z,14.30
2018-07-12T00:56:39.382Z,14.20
2018-07-12T00:59:06.882Z,14.20
2018-07-12T01:01:34.394Z,14.20
2018-07-12T01:04:01.914Z,14.20
2018-07-12T01:06:29.474Z,14.20
2018-07-12T01:08:56.956Z,14.20
2018-07-12T01:11:24.358Z,14.10
2018-07-12T01:13:51.828Z,14.10
2018-07-12T01:16:19.290Z,14.10
2018-07-12T01:18:46.806Z,14.10
2018-07-12T01:21:14.231Z,14.10
2018-07-12T01:23:41.707Z,14.10
2018-07-12T01:26:09.183Z,14.00
2018-07-12T01:28:36.785Z,14.10
2018-07-12T01:31:04.246Z,14.00
2018-07-12T01:33:31.612Z,14.00
2018-07-12T01:35:59.088Z,14.00
2018-07-12T01:38:26.723Z,14.00
2018-07-12T01:40:54.280Z,14.00
2018-07-12T01:43:21.912Z,13.90
2018-07-12T01:45:49.402Z,14.00
2018-07-12T01:48:16.918Z,13.90
2018-07-12T01:50:44.452Z,13.90
2018-07-12T01:53:11.927Z,13.90
2018-07-12T01:55:39.383Z,13.90
2018-07-12T01:58:07.060Z,13.90
2018-07-12T02:00:34.617Z,13.90
2018-07-12T02:03:02.170Z,13.90
2018-07-12T02:05:29.639Z,13.90
2018-07-12T02:07:57.057Z,13.80
2018-07-12T02:10:24.531Z,13.80
2018-07-12T02:12:52.000Z,13.80
2018-07-12T02:15:19.483Z,13.80
2018-07-12T02:17:47.089Z,13.80
2018-07-12T02:22:42.484Z,13.70
2018-07-12T02:25:09.946Z,13.70
2018-07-12T02:27:37.406Z,13.70
2018-07-12T02:30:04.905Z,13.60
2018-07-12T02:32:32.343Z,13.60
2018-07-12T02:34:59.876Z,13.50
2018-07-12T02:37:27.300Z,13.50
2018-07-12T02:39:57.842Z,13.50
2018-07-12T02:42:25.340Z,13.50
2018-07-12T02:44:53.048Z,13.50
2018-07-12T02:47:20.951Z,13.40
2018-07-12T02:49:48.576Z,13.40
2018-07-12T02:52:16.450Z,13.40
2018-07-12T02:57:11.792Z,13.30
2018-07-12T02:59:39.400Z,13.30
2018-07-12T03:02:06.991Z,13.20
2018-07-12T03:04:34.583Z,13.20
2018-07-12T03:07:02.342Z,13.10
2018-07-12T03:09:29.993Z,13.10
2018-07-12T03:11:57.653Z,13.00
2018-07-12T03:14:25.283Z,13.00
2018-07-12T03:16:52.825Z,13.00
2018-07-12T03:19:20.316Z,13.00
2018-07-12T03:21:47.842Z,12.90
2018-07-12T03:24:15.427Z,12.90
2018-07-12T03:26:43.020Z,12.90
2018-07-12T03:29:10.546Z,12.90
2018-07-12T03:31:38.045Z,12.90
2018-07-12T03:34:05.671Z,12.90
2018-07-12T03:36:33.200Z,12.90
2018-07-12T03:39:00.792Z,12.90
2018-07-12T03:41:28.395Z,12.90
2018-07-12T03:43:55.895Z,12.90
2018-07-12T03:46:23.468Z,13.00
2018-07-12T03:48:51.116Z,13.00
2018-07-12T03:51:18.710Z,13.00
2018-07-12T03:53:46.236Z,13.00
2018-07-12T03:56:13.799Z,13.10
2018-07-12T03:58:41.336Z,13.10
2018-07-12T04:03:36.717Z,13.10
2018-07-12T04:06:04.160Z,13.20
2018-07-12T04:08:31.713Z,13.20
2018-07-12T04:13:27.129Z,13.20
2018-07-12T04:20:50.664Z,13.30
2018-07-12T04:23:18.410Z,13.40
2018-07-12T04:25:46.228Z,13.40
2018-07-12T04:28:14.051Z,13.40
2018-07-12T04:30:41.568Z,13.50
2018-07-12T04:33:09.095Z,13.50
2018-07-12T04:35:38.100Z,13.60
2018-07-12T04:38:05.572Z,13.60
2018-07-12T04:40:32.998Z,13.70
2018-07-12T04:43:00.716Z,13.70
2018-07-12T04:45:28.245Z,13.70
2018-07-12T04:47:55.832Z,13.80
2018-07-12T04:50:23.288Z,13.90
2018-07-12T04:52:50.801Z,13.90
2018-07-12T04:55:18.975Z,14.00
2018-07-12T04:57:46.504Z,14.00
2018-07-12T05:00:14.050Z,14.00
2018-07-12T05:02:41.539Z,14.10
2018-07-12T05:05:09.028Z,14.10
2018-07-12T05:07:36.479Z,14.20
2018-07-12T05:10:06.204Z,14.30
2018-07-12T05:12:33.752Z,14.30
2018-07-12T05:15:01.256Z,14.40
2018-07-12T05:17:28.728Z,14.40
2018-07-12T05:19:56.228Z,14.50
2018-07-12T05:22:23.766Z,14.60
2018-07-12T05:24:51.301Z,14.60
2018-07-12T05:27:18.771Z,14.70
2018-07-12T05:29:46.456Z,14.80
2018-07-12T05:32:14.135Z,14.90
2018-07-12T05:34:41.748Z,15.00
2018-07-12T05:37:10.618Z,15.10
2018-07-12T05:39:39.432Z,15.20
2018-07-12T05:42:08.381Z,15.30
2018-07-12T05:44:37.257Z,15.30
2018-07-12T05:47:06.075Z,15.40
2018-07-12T05:52:03.563Z,15.50
2018-07-12T05:54:32.402Z,15.60
2018-07-12T05:57:01.541Z,15.70
2018-07-12T05:59:30.634Z,15.80
2018-07-12T06:02:10.553Z,15.90
2018-07-12T06:04:39.485Z,16.00
2018-07-12T06:07:08.758Z,16.10
2018-07-12T06:09:38.083Z,16.30
2018-07-12T06:12:07.042Z,16.40
2018-07-12T06:14:35.912Z,16.50
2018-07-12T06:17:04.792Z,16.50
2018-07-12T06:19:33.606Z,16.60
2018-07-12T06:22:02.604Z,16.70
2018-07-12T06:24:32.233Z,16.70
2018-07-12T06:27:01.460Z,16.80
2018-07-12T06:29:30.434Z,17.00
2018-07-12T06:31:59.287Z,17.10
2018-07-12T06:34:28.435Z,17.30
2018-07-12T06:36:57.329Z,17.40
2018-07-12T06:39:26.383Z,17.50
2018-07-12T06:41:55.091Z,17.60
2018-07-12T06:44:24.088Z,17.70
2018-07-12T06:49:21.601Z,17.80
2018-07-12T06:51:50.598Z,18.00
2018-07-12T06:54:19.459Z,18.10
2018-07-12T06:56:48.348Z,18.20
2018-07-12T06:59:17.284Z,18.30
2018-07-12T07:01:46.234Z,18.40
2018-07-12T07:04:15.199Z,18.50
2018-07-12T07:06:44.192Z,18.60
2018-07-12T07:09:13.055Z,18.80
2018-07-12T07:11:41.994Z,18.90
2018-07-12T07:14:10.940Z,19.00
2018-07-12T07:16:39.907Z,19.20
2018-07-12T07:19:08.830Z,19.30
2018-07-12T07:21:37.682Z,19.50
2018-07-12T07:24:06.542Z,19.60
2018-07-12T07:26:35.270Z,19.80
2018-07-12T07:29:04.360Z,19.90
2018-07-12T07:31:33.117Z,20.10
2018-07-12T07:34:01.935Z,20.20
2018-07-12T07:36:30.734Z,20.40
2018-07-12T07:38:59.704Z,20.60
2018-07-12T07:43:57.112Z,20.80
2018-07-12T07:46:25.927Z,21.00
2018-07-12T07:48:54.712Z,21.10
2018-07-12T07:51:23.661Z,21.30
2018-07-12T07:53:52.537Z,21.50
2018-07-12T07:56:21.467Z,21.60
2018-07-12T07:58:50.556Z,21.80
2018-07-12T08:01:19.515Z,22.00
2018-07-12T08:03:48.559Z,22.20
2018-07-12T08:06:17.391Z,22.20
2018-07-12T08:08:46.302Z,22.40
2018-07-12T08:11:15.254Z,22.50
2018-07-12T08:16:12.783Z,22.80
2018-07-12T08:18:41.585Z,23.00
2018-07-12T08:21:13.646Z,23.20
2018-07-12T08:23:43.151Z,23.30
2018-07-12T08:26:12.069Z,23.30
2018-07-12T08:28:40.814Z,23.50
2018-07-12T08:31:09.636Z,23.50
2018-07-12T08:33:38.546Z,23.50
2018-07-12T08:36:07.462Z,23.70
2018-07-12T08:38:36.226Z,23.90
2018-07-12T08:41:05.602Z,24.00
2018-07-12T08:43:34.441Z,24.20
2018-07-12T08:46:03.317Z,24.40
2018-07-12T08:48:32.162Z,24.40
2018-07-12T08:51:01.473Z,24.40
2018-07-12T08:53:30.392Z,24.60
2018-07-12T08:55:59.299Z,24.70
2018-07-12T08:58:28.040Z,24.80
2018-07-12T09:00:56.868Z,24.80
2018-07-12T09:03:25.628Z,25.00
2018-07-12T09:05:54.494Z,25.00
2018-07-12T09:08:23.375Z,25.10
2018-07-12T09:10:52.387Z,25.30
2018-07-12T09:13:21.346Z,25.40
2018-07-12T09:15:50.281Z,25.70
2018-07-12T09:18:19.046Z,25.70
2018-07-12T09:20:47.906Z,25.30
2018-07-12T09:23:16.737Z,25.30
2018-07-12T09:25:45.506Z,24.90
2018-07-12T09:28:14.232Z,24.80
2018-07-12T09:30:43.140Z,24.60
2018-07-12T09:33:11.947Z,24.40
2018-07-12T09:35:40.740Z,24.10
2018-07-12T09:38:20.824Z,24.10
2018-07-12T09:40:49.494Z,24.10
2018-07-12T09:43:18.294Z,24.10
2018-07-12T09:45:47.006Z,24.40
2018-07-12T09:48:15.941Z,24.70
2018-07-12T09:50:44.778Z,25.10
2018-07-12T09:53:13.646Z,25.30
2018-07-12T09:55:42.595Z,25.50
2018-07-12T09:58:22.394Z,25.60
2018-07-12T10:00:56.348Z,25.60
2018-07-12T10:03:29.348Z,25.80
2018-07-12T10:05:58.714Z,25.90
2018-07-12T10:08:33.050Z,26.10
2018-07-12T10:11:07.021Z,26.00
2018-07-12T10:13:41.046Z,25.90
2018-07-12T10:16:15.286Z,25.70
2018-07-12T10:18:44.158Z,25.40
2018-07-12T10:21:12.966Z,25.30
2018-07-12T10:23:41.884Z,25.10
2018-07-12T10:26:10.690Z,24.90
2018-07-12T10:28:40.770Z,24.80
2018-07-12T10:31:09.558Z,24.50
2018-07-12T10:33:38.382Z,24.30
2018-07-12T10:36:07.139Z,24.20
2018-07-12T10:38:35.821Z,24.20
2018-07-12T10:41:04.706Z,24.30
2018-07-12T10:43:33.656Z,24.50
2018-07-12T10:46:02.545Z,24.70
2018-07-12T10:48:31.328Z,24.90
2018-07-12T10:51:00.275Z,25.00
2018-07-12T10:53:29.166Z,25.10
2018-07-12T10:55:58.048Z,25.10
2018-07-12T10:58:27.307Z,25.10
2018-07-12T11:00:56.412Z,25.20
2018-07-12T11:03:25.140Z,25.30
2018-07-12T11:05:54.040Z,25.20
2018-07-12T11:08:22.983Z,25.40
2018-07-12T11:10:51.975Z,25.70
2018-07-12T11:13:30.849Z,26.00
2018-07-12T11:15:59.686Z,26.20
2018-07-12T11:18:28.707Z,26.20
2018-07-12T11:20:57.708Z,26.60
2018-07-12T11:23:26.478Z,26.80
2018-07-12T11:25:55.298Z,27.00
2018-07-12T11:28:24.190Z,27.10
2018-07-12T11:30:52.966Z,27.10
2018-07-12T11:33:37.723Z,27.10
2018-07-12T11:36:07.101Z,27.10
2018-07-12T11:38:37.771Z,27.30
2018-07-12T11:41:07.207Z,27.50
2018-07-12T11:43:36.018Z,27.80
2018-07-12T11:46:06.097Z,27.90
2018-07-12T11:48:36.105Z,28.20
2018-07-12T11:51:05.063Z,28.40
2018-07-12T11:53:34.170Z,28.50
2018-07-12T11:56:03.310Z,28.40
2018-07-12T11:58:32.237Z,28.40
2018-07-12T12:01:01.415Z,28.30
2018-07-12T12:03:30.883Z,28.40
2018-07-12T12:05:59.860Z,28.20
2018-07-12T12:08:28.732Z,28.20
2018-07-12T12:10:57.656Z,27.90
2018-07-12T12:13:26.509Z,27.80
2018-07-12T12:15:55.461Z,27.40
2018-07-12T12:18:24.329Z,27.20
2018-07-12T12:20:53.350Z,26.90
2018-07-12T12:23:22.168Z,26.70
2018-07-12T12:25:50.893Z,26.40
2018-07-12T12:28:19.940Z,26.10
2018-07-12T12:30:48.800Z,26.00
2018-07-12T12:33:17.564Z,25.90
2018-07-12T12:35:46.390Z,25.80
2018-07-12T12:38:15.243Z,25.80
2018-07-12T12:40:43.971Z,25.70
2018-07-12T12:43:12.740Z,25.60
2018-07-12T12:45:41.522Z,25.50
2018-07-12T12:48:10.237Z,25.40
2018-07-12T12:50:39.017Z,25.30
2018-07-12T12:53:07.757Z,25.10
2018-07-12T12:55:36.545Z,25.00
2018-07-12T12:58:05.379Z,24.80
2018-07-12T13:00:34.239Z,24.60
2018-07-12T13:03:03.063Z,24.40
2018-07-12T13:05:31.748Z,24.40
2018-07-12T13:08:00.439Z,24.40
2018-07-12T13:10:29.097Z,24.40
2018-07-12T13:12:57.833Z,24.40
2018-07-12T13:15:26.644Z,24.30
2018-07-12T13:17:55.431Z,24.30
2018-07-12T13:20:24.191Z,24.20
2018-07-12T13:22:53.220Z,24.20
2018-07-12T13:25:22.156Z,24.30
2018-07-12T13:27:51.079Z,24.30
2018-07-12T13:30:20.000Z,24.30
2018-07-12T13:32:48.784Z,24.20
2018-07-12T13:35:17.610Z,24.30
2018-07-12T13:37:46.304Z,24.50
2018-07-12T13:40:15.099Z,24.70
2018-07-12T13:42:43.856Z,24.90
2018-07-12T13:45:12.600Z,25.10
2018-07-12T13:47:41.424Z,25.30
2018-07-12T13:50:10.144Z,25.30
2018-07-12T13:52:38.963Z,25.30
2018-07-12T13:55:07.783Z,25.20
2018-07-12T13:57:36.646Z,25.00
2018-07-12T14:00:05.475Z,24.90
2018-07-12T14:02:34.210Z,24.90
2018-07-12T14:05:03.075Z,24.80
2018-07-12T14:07:32.412Z,24.90
2018-07-12T14:10:01.314Z,24.90
2018-07-12T14:12:30.104Z,24.90
2018-07-12T14:14:58.739Z,24.80
2018-07-12T14:17:27.684Z,24.80
2018-07-12T14:19:56.537Z,24.80
2018-07-12T14:22:25.404Z,24.80
2018-07-12T14:24:54.087Z,24.80
2018-07-12T14:27:22.890Z,24.90
2018-07-12T14:29:51.575Z,24.80
2018-07-12T14:34:48.940Z,24.60
2018-07-12T14:37:17.680Z,24.50
2018-07-12T14:39:46.443Z,24.50
2018-07-12T14:42:15.142Z,24.50
2018-07-12T14:44:43.964Z,24.60
2018-07-12T14:47:12.680Z,24.80
2018-07-12T14:49:41.378Z,25.00
2018-07-12T14:52:10.108Z,25.10
2018-07-12T14:54:38.903Z,25.10
2018-07-12T14:57:07.764Z,25.10
2018-07-12T14:59:37.715Z,25.30
2018-07-12T15:02:06.638Z,25.40
2018-07-12T15:04:35.378Z,25.40
2018-07-12T15:07:04.344Z,25.50
2018-07-12T15:09:33.236Z,25.40
2018-07-12T15:12:01.906Z,25.40
2018-07-12T15:14:30.709Z,25.30
2018-07-12T15:16:59.476Z,25.30
2018-07-12T15:19:28.269Z,25.10
2018-07-12T15:21:57.030Z,25.10
2018-07-12T15:24:26.075Z,25.10
2018-07-12T15:26:54.944Z,25.10
2018-07-12T15:29:23.738Z,25.10
2018-07-12T15:31:52.445Z,25.00
2018-07-12T15:36:49.666Z,24.90
2018-07-12T15:39:18.354Z,24.90
2018-07-12T15:41:47.125Z,24.80
2018-07-12T15:44:15.762Z,24.70
2018-07-12T15:46:44.513Z,24.70
2018-07-12T15:49:13.294Z,24.60
2018-07-12T15:51:42.154Z,24.60
2018-07-12T15:54:11.055Z,24.60
2018-07-12T15:56:39.854Z,24.60
2018-07-12T15:59:08.752Z,24.60
2018-07-12T16:01:37.417Z,24.60
2018-07-12T16:04:06.133Z,24.60
2018-07-12T16:06:34.883Z,24.60
2018-07-12T16:09:03.797Z,24.50
2018-07-12T16:11:32.472Z,24.50
2018-07-12T16:14:01.251Z,24.50
2018-07-12T16:16:30.124Z,24.50
2018-07-12T16:18:58.826Z,24.40
2018-07-12T16:21:27.547Z,24.40
2018-07-12T16:23:56.260Z,24.40
2018-07-12T16:26:25.075Z,24.40
2018-07-12T16:28:53.795Z,24.30
2018-07-12T16:31:22.563Z,24.30
2018-07-12T16:33:51.208Z,24.30
2018-07-12T16:36:20.016Z,24.30
2018-07-12T16:38:48.785Z,24.30
2018-07-12T16:41:17.468Z,24.30
2018-07-12T16:43:46.227Z,24.20
2018-07-12T16:46:14.931Z,24.20
2018-07-12T16:48:43.665Z,24.20
2018-07-12T16:51:12.410Z,24.20
2018-07-12T16:53:41.266Z,24.10
2018-07-12T16:56:09.969Z,24.10
2018-07-12T16:58:38.780Z,24.00
2018-07-12T17:01:07.447Z,24.00
2018-07-12T17:03:36.177Z,23.90
2018-07-12T17:06:04.860Z,23.90
2018-07-12T17:11:02.019Z,23.70
2018-07-12T17:15:59.114Z,23.70
2018-07-12T17:18:28.059Z,23.60
2018-07-12T17:20:56.778Z,23.50
2018-07-12T17:23:25.419Z,23.50
2018-07-12T17:25:54.250Z,23.50
2018-07-12T17:28:22.976Z,23.40
2018-07-12T17:30:51.644Z,23.40
2018-07-12T17:33:20.463Z,23.40
2018-07-12T17:35:49.328Z,23.30
2018-07-12T17:38:17.956Z,23.30
2018-07-12T17:40:46.768Z,23.30
2018-07-12T17:43:15.515Z,23.20
2018-07-12T17:45:44.190Z,23.20
2018-07-12T17:48:12.984Z,23.10
2018-07-12T17:50:41.765Z,23.10
2018-07-12T17:53:10.558Z,23.00
2018-07-12T17:55:39.260Z,23.00
2018-07-12T17:58:08.048Z,22.90
2018-07-12T18:00:36.822Z,22.80
2018-07-12T18:03:05.751Z,22.80
2018-07-12T18:05:34.554Z,22.70
2018-07-12T18:08:03.345Z,22.70
2018-07-12T18:10:32.144Z,22.70
2018-07-12T18:13:00.901Z,22.60
2018-07-12T18:15:29.651Z,22.60
2018-07-12T18:17:58.239Z,22.60
2018-07-12T18:20:26.936Z,22.50
2018-07-12T18:22:55.756Z,22.50
2018-07-12T18:25:24.527Z,22.40
2018-07-12T18:27:53.375Z,22.40
2018-07-12T18:30:22.154Z,22.30
2018-07-12T18:32:50.906Z,22.20
2018-07-12T18:35:19.595Z,22.20
2018-07-12T18:37:48.254Z,22.10
2018-07-12T18:40:17.084Z,22.00
2018-07-12T18:42:45.788Z,21.90
2018-07-12T18:45:14.450Z,21.90
2018-07-12T18:47:43.156Z,21.80
2018-07-12T18:52:40.125Z,21.70
2018-07-12T18:55:08.802Z,21.60
2018-07-12T19:00:06.128Z,21.50
2018-07-12T19:02:34.975Z,21.40
2018-07-12T19:05:03.640Z,21.30
2018-07-12T19:07:32.386Z,21.30
2018-07-12T19:10:00.970Z,21.20
2018-07-12T19:12:29.662Z,21.10
2018-07-12T19:14:58.418Z,21.10
2018-07-12T19:17:27.069Z,21.00
2018-07-12T19:19:56.554Z,21.00
2018-07-12T19:22:25.335Z,21.00
2018-07-12T19:24:53.998Z,20.90
2018-07-12T19:27:22.724Z,20.90
2018-07-12T19:29:51.426Z,20.90
2018-07-12T19:32:20.116Z,20.90
2018-07-12T19:37:16.992Z,20.80
2018-07-12T19:39:46.084Z,20.80
2018-07-12T19:42:14.764Z,20.80
2018-07-12T19:44:43.395Z,20.80
2018-07-12T19:47:12.032Z,20.70
2018-07-12T19:49:40.754Z,20.70
2018-07-12T19:52:09.350Z,20.70
2018-07-12T19:54:38.124Z,20.60
2018-07-12T19:57:06.844Z,20.60
2018-07-12T19:59:35.548Z,20.60
2018-07-12T20:02:04.222Z,20.50
2018-07-12T20:04:32.928Z,20.50
2018-07-12T20:07:02.674Z,20.40
2018-07-12T20:09:31.178Z,20.40
2018-07-12T20:11:59.730Z,20.30
2018-07-12T20:14:28.207Z,20.20
2018-07-12T20:16:56.866Z,20.20
2018-07-12T20:19:25.346Z,20.10
2018-07-12T20:21:53.861Z,20.10
2018-07-12T20:24:23.271Z,20.00
2018-07-12T20:26:51.935Z,19.90
2018-07-12T20:29:20.577Z,19.80
2018-07-12T20:31:49.407Z,19.70
2018-07-12T20:39:14.622Z,19.50
2018-07-12T20:41:43.350Z,19.40
2018-07-12T20:44:11.951Z,19.30
2018-07-12T20:46:42.397Z,19.20
2018-07-12T20:49:11.011Z,19.20
2018-07-12T20:51:39.677Z,19.10
2018-07-12T20:54:08.364Z,19.00
2018-07-12T20:56:37.103Z,18.90
2018-07-12T20:59:05.881Z,18.90
2018-07-12T21:01:35.411Z,18.80
2018-07-12T21:04:04.212Z,18.70
2018-07-12T21:06:32.973Z,18.70
2018-07-12T21:09:01.832Z,18.60
2018-07-12T21:11:30.620Z,18.60
2018-07-12T21:13:59.317Z,18.50
2018-07-12T21:16:28.000Z,18.50
2018-07-12T21:18:56.844Z,18.40
2018-07-12T21:21:25.531Z,18.40
2018-07-12T21:23:54.274Z,18.30
2018-07-12T21:26:22.944Z,18.20
2018-07-12T21:28:51.701Z,18.20
2018-07-12T21:31:21.905Z,18.10
2018-07-12T21:33:50.637Z,18.10
2018-07-12T21:36:19.191Z,18.00
2018-07-12T21:38:48.016Z,17.90
2018-07-12T21:41:16.672Z,17.90
2018-07-12T21:43:45.359Z,17.90
2018-07-12T21:46:13.967Z,17.80
2018-07-12T21:48:42.628Z,17.80
2018-07-12T21:51:11.183Z,17.70
2018-07-12T21:53:41.941Z,17.60
2018-07-12T21:56:10.607Z,17.60
2018-07-12T21:58:39.307Z,17.50
2018-07-12T22:01:07.930Z,17.50
2018-07-12T22:03:36.588Z,17.40
2018-07-12T22:06:05.347Z,17.40
2018-07-12T22:08:34.007Z,17.40
2018-07-12T22:11:04.997Z,17.40
2018-07-12T22:13:35.185Z,17.40
2018-07-12T22:16:03.839Z,17.40
2018-07-12T22:18:32.535Z,17.40
2018-07-12T22:21:01.361Z,17.40
2018-07-12T22:23:30.179Z,17.40
2018-07-12T22:25:58.906Z,17.30
2018-07-12T22:28:27.640Z,17.30
2018-07-12T22:30:56.372Z,17.30
2018-07-12T22:33:24.980Z,17.20
2018-07-12T22:35:53.749Z,17.20
2018-07-12T22:38:22.395Z,17.20
2018-07-12T22:40:51.114Z,17.10
2018-07-12T22:43:19.758Z,17.10
2018-07-12T22:45:49.099Z,17.10
2018-07-12T22:48:17.845Z,17.10
2018-07-12T22:50:46.580Z,17.00
2018-07-12T22:53:15.282Z,17.10
2018-07-12T22:55:44.026Z,17.00
2018-07-12T22:58:12.698Z,17.10
2018-07-12T23:00:43.050Z,17.00
2018-07-12T23:03:11.802Z,17.00
2018-07-12T23:05:40.544Z,17.00
2018-07-12T23:08:09.311Z,17.00
2018-07-12T23:10:38.032Z,17.00
2018-07-12T23:13:06.788Z,17.00
2018-07-12T23:15:35.538Z,16.90
2018-07-12T23:18:04.206Z,16.90
2018-07-12T23:20:33.790Z,16.90
2018-07-12T23:23:02.580Z,16.90
2018-07-12T23:25:31.268Z,16.80
2018-07-12T23:27:59.881Z,16.80
2018-07-12T23:30:28.562Z,16.80
2018-07-12T23:32:57.282Z,16.80
2018-07-12T23:35:26.078Z,16.70
2018-07-12T23:37:54.829Z,16.70
2018-07-12T23:40:23.505Z,16.60
2018-07-12T23:42:52.192Z,16.60
2018-07-12T23:45:20.889Z,16.50
2018-07-12T23:47:49.577Z,16.50
2018-07-12T23:50:18.420Z,16.50
2018-07-12T23:52:47.124Z,16.50
2018-07-12T23:55:15.950Z,16.40
2018-07-12T23:57:44.697Z,16.40
